Time;durP1;ratioP1;P1;durP2;ratioP2;P2;SDS_P1;SDS_P2;PMS_P1;PMS_P2;Temp;Humidity;BMP_temperature;BMP_pressure;BME280_temperature;BME280_humidity;BME280_pressure;Samples;Min_cycle;Max_cycle;Signal;HPM_P1;HPM_P2
2023/05/11 00:00:26;;;;;;;13.70;9.00;;;13.80;99.90;;;;;;5204453;28;20274;-48
2023/05/11 00:02:57;;;;;;;11.60;8.97;;;13.80;99.90;;;;;;5222584;28;20187;-50
2023/05/11 00:05:27;;;;;;;14.03;9.47;;;13.80;99.90;;;;;;5222274;28;20174;-48
2023/05/11 00:07:58;;;;;;;12.53;9.53;;;13.80;99.90;;;;;;5224828;28;20256;-49
2023/05/11 00:10:29;;;;;;;12.57;9.80;;;13.70;99.90;;;;;;5224166;28;20195;-50
2023/05/11 00:13:00;;;;;;;15.27;10.80;;;13.70;99.90;;;;;;5236244;22;20222;-48
2023/05/11 00:15:31;;;;;;;15.40;11.33;;;13.70;99.90;;;;;;5221985;28;20184;-50
2023/05/11 00:18:02;;;;;;;15.30;11.30;;;13.70;99.90;;;;;;5221835;28;20470;-50
2023/05/11 00:20:32;;;;;;;22.43;12.10;;;13.60;99.90;;;;;;5227768;28;20190;-49
2023/05/11 00:23:03;;;;;;;15.77;11.30;;;13.60;99.90;;;;;;5209229;28;20651;-50
2023/05/11 00:25:34;;;;;;;12.27;9.33;;;13.60;99.90;;;;;;5201427;28;20190;-49
2023/05/11 00:28:06;;;;;;;15.97;10.93;;;13.70;99.90;;;;;;5219255;28;20255;-48
2023/05/11 00:30:39;;;;;;;14.70;10.13;;;13.60;99.90;;;;;;5201947;28;20199;-48
2023/05/11 00:33:10;;;;;;;14.93;10.50;;;13.60;99.90;;;;;;5203001;28;20462;-48
2023/05/11 00:35:41;;;;;;;18.90;10.43;;;13.60;99.90;;;;;;5204904;28;20422;-50
2023/05/11 00:38:12;;;;;;;14.00;9.30;;;13.60;99.90;;;;;;5200561;28;20211;-48
2023/05/11 00:40:46;;;;;;;18.47;9.80;;;13.50;99.90;;;;;;5213620;28;20894;-48
2023/05/11 00:43:17;;;;;;;18.80;10.90;;;13.50;99.90;;;;;;5215792;28;20195;-49
2023/05/11 00:45:48;;;;;;;11.20;10.00;;;13.50;99.90;;;;;;5210100;28;20841;-48
2023/05/11 00:48:19;;;;;;;16.57;11.40;;;13.40;99.90;;;;;;5201499;28;20203;-50
2023/05/11 00:50:52;;;;;;;13.43;9.80;;;13.40;99.90;;;;;;5207423;28;21011;-50
2023/05/11 00:53:25;;;;;;;16.90;11.57;;;13.40;99.90;;;;;;5205016;28;20438;-49
2023/05/11 00:55:56;;;;;;;17.87;11.73;;;13.40;99.90;;;;;;5201152;28;20466;-48
2023/05/11 00:58:27;;;;;;;15.93;11.70;;;13.30;99.90;;;;;;5201614;28;20498;-49
2023/05/11 01:00:58;;;;;;;17.33;11.10;;;13.30;99.90;;;;;;5203273;28;20267;-48
2023/05/11 01:03:30;;;;;;;17.63;11.30;;;13.30;99.90;;;;;;5204555;28;20442;-48
2023/05/11 01:06:10;;;;;;;16.57;12.30;;;13.30;99.90;;;;;;5205926;28;20703;-47
2023/05/11 01:08:54;;;;;;;17.73;11.67;;;13.30;99.90;;;;;;5221982;28;20418;-49
2023/05/11 01:11:38;;;;;;;14.87;11.87;;;13.30;99.90;;;;;;5203991;28;20461;-49
2023/05/11 01:14:20;;;;;;;16.43;12.30;;;13.20;99.90;;;;;;5201213;28;20433;-48
2023/05/11 01:16:57;;;;;;;19.60;12.23;;;13.20;99.90;;;;;;5208650;28;20438;-48
2023/05/11 01:19:34;;;;;;;16.07;11.47;;;13.20;99.90;;;;;;5206055;28;20494;-48
2023/05/11 01:22:17;;;;;;;13.50;11.20;;;13.10;99.90;;;;;;5202411;28;20454;-50
2023/05/11 01:25:27;;;;;;;15.20;12.30;;;13.10;99.90;;;;;;5205259;28;20510;-50
2023/05/11 01:28:03;;;;;;;19.07;12.20;;;13.00;99.90;;;;;;5203054;28;20454;-49
2023/05/11 01:30:50;;;;;;;22.47;14.10;;;13.00;99.90;;;;;;5204016;28;20800;-49
2023/05/11 01:33:26;;;;;;;27.60;15.43;;;12.90;99.90;;;;;;5201458;28;20476;-50
2023/05/11 01:36:06;;;;;;;23.60;14.30;;;13.00;99.90;;;;;;5204037;28;20947;-49
2023/05/11 01:38:40;;;;;;;29.53;15.83;;;12.90;99.90;;;;;;5202662;28;20474;-48
2023/05/11 01:41:15;;;;;;;20.07;14.30;;;12.90;99.90;;;;;;5187669;28;20473;-49
2023/05/11 01:43:59;;;;;;;21.00;14.27;;;12.80;99.90;;;;;;5203477;28;20429;-49
2023/05/11 01:46:32;;;;;;;24.77;14.57;;;12.80;99.90;;;;;;5201317;28;20438;-49
2023/05/11 01:49:06;;;;;;;23.80;14.90;;;12.70;99.90;;;;;;5222047;28;20438;-48
2023/05/11 01:51:38;;;;;;;24.90;13.70;;;12.70;99.90;;;;;;5205793;28;20510;-48
2023/05/11 01:54:10;;;;;;;21.03;14.43;;;12.70;99.90;;;;;;5213261;28;21275;-47
2023/05/11 01:56:43;;;;;;;20.80;14.47;;;12.60;99.90;;;;;;5206916;28;20850;-47
2023/05/11 01:59:16;;;;;;;22.60;14.80;;;12.60;99.90;;;;;;5205346;28;20465;-48
2023/05/11 02:01:47;;;;;;;17.60;14.00;;;12.60;99.90;;;;;;5209636;28;20457;-48
2023/05/11 02:04:25;;;;;;;17.23;14.47;;;12.50;99.90;;;;;;5208546;28;20844;-50
2023/05/11 02:06:58;;;;;;;18.57;14.70;;;12.50;99.90;;;;;;5208636;28;20433;-49
2023/05/11 02:09:31;;;;;;;20.20;14.80;;;12.50;99.90;;;;;;5205579;28;20447;-49
2023/05/11 02:12:09;;;;;;;28.87;14.50;;;12.40;99.90;;;;;;5208342;28;20461;-48
2023/05/11 02:14:41;;;;;;;17.40;13.87;;;12.40;99.90;;;;;;5207733;28;20465;-48
2023/05/11 02:17:13;;;;;;;16.20;13.90;;;12.40;99.90;;;;;;5204912;28;20438;-49
2023/05/11 02:19:45;;;;;;;21.00;14.33;;;12.30;99.90;;;;;;5208098;28;20443;-49
2023/05/11 02:22:19;;;;;;;18.47;15.17;;;12.30;99.90;;;;;;5209083;28;20520;-49
2023/05/11 02:24:50;;;;;;;19.30;14.87;;;12.30;99.90;;;;;;5206814;28;20499;-48
2023/05/11 02:27:23;;;;;;;22.03;15.50;;;12.30;99.90;;;;;;5207614;28;20438;-50
2023/05/11 02:29:57;;;;;;;19.40;14.10;;;12.30;99.90;;;;;;5205983;28;20219;-50
2023/05/11 02:32:32;;;;;;;24.37;15.30;;;12.20;99.90;;;;;;5209157;28;20485;-49
2023/05/11 02:35:15;;;;;;;15.17;13.10;;;12.20;99.90;;;;;;5204758;28;20666;-49
2023/05/11 02:37:48;;;;;;;19.13;14.80;;;12.20;99.90;;;;;;5210470;28;20465;-49
2023/05/11 02:40:30;;;;;;;17.70;13.67;;;12.20;99.90;;;;;;5204514;28;20444;-49
2023/05/11 02:43:10;;;;;;;16.20;12.30;;;12.20;99.90;;;;;;5205735;28;20500;-49
2023/05/11 02:45:46;;;;;;;14.53;12.03;;;12.20;99.90;;;;;;5213391;28;20437;-48
2023/05/11 02:48:24;;;;;;;17.87;13.00;;;12.10;99.90;;;;;;5206496;28;20930;-49
2023/05/11 02:50:57;;;;;;;15.10;12.40;;;12.10;99.90;;;;;;5208084;28;20422;-48
2023/05/11 02:53:29;;;;;;;15.37;11.90;;;12.10;99.90;;;;;;5206524;28;20450;-49
2023/05/11 02:56:00;;;;;;;13.00;10.40;;;12.10;99.90;;;;;;5204803;28;20537;-49
2023/05/11 02:58:31;;;;;;;11.57;9.97;;;12.00;99.90;;;;;;5212508;28;20472;-50
2023/05/11 03:01:05;;;;;;;11.70;10.13;;;12.10;99.90;;;;;;5208917;28;20968;-50
2023/05/11 03:03:36;;;;;;;15.13;9.47;;;12.10;99.90;;;;;;5204037;28;20242;-50
2023/05/11 03:06:09;;;;;;;14.10;8.40;;;12.00;99.90;;;;;;5209495;28;20435;-50
2023/05/11 03:08:41;;;;;;;10.03;8.13;;;12.00;99.90;;;;;;5223819;28;20200;-49
2023/05/11 03:11:14;;;;;;;14.13;9.23;;;12.00;99.90;;;;;;5213258;28;20454;-50
2023/05/11 03:13:45;;;;;;;14.57;8.60;;;12.00;99.90;;;;;;5189583;28;20461;-49
2023/05/11 03:16:18;;;;;;;14.23;8.80;;;12.00;99.90;;;;;;5204536;28;20442;-49
2023/05/11 03:18:50;;;;;;;12.17;8.93;;;12.00;99.90;;;;;;5205879;28;20505;-50
2023/05/11 03:21:23;;;;;;;9.87;8.87;;;12.00;99.90;;;;;;5219101;28;20450;-51
2023/05/11 03:23:56;;;;;;;12.33;9.17;;;12.00;99.90;;;;;;5206274;28;20419;-50
2023/05/11 03:26:31;;;;;;;14.03;8.70;;;12.00;99.90;;;;;;5201659;28;20457;-48
2023/05/11 03:29:02;;;;;;;10.33;8.90;;;12.00;99.90;;;;;;5204352;28;20556;-48
2023/05/11 03:31:33;;;;;;;9.10;8.20;;;12.00;99.90;;;;;;5205227;28;20549;-55
2023/05/11 03:34:04;;;;;;;8.70;7.90;;;12.00;99.90;;;;;;5210928;28;20443;-49
2023/05/11 03:36:36;;;;;;;8.20;7.40;;;12.00;99.90;;;;;;5206292;28;20441;-49
2023/05/11 03:39:10;;;;;;;8.27;7.47;;;12.00;99.90;;;;;;5207318;28;20210;-48
2023/05/11 03:41:43;;;;;;;9.97;7.70;;;12.10;99.90;;;;;;5190342;28;20457;-48
2023/05/11 03:44:18;;;;;;;13.53;7.80;;;12.10;99.90;;;;;;5200290;28;20438;-48
2023/05/11 03:46:49;;;;;;;11.27;7.50;;;12.10;99.90;;;;;;5203122;28;20438;-48
2023/05/11 03:49:20;;;;;;;8.10;7.30;;;12.20;99.90;;;;;;5214121;28;20454;-47
2023/05/11 03:51:52;;;;;;;9.93;7.50;;;12.20;99.90;;;;;;5201097;28;20477;-50
2023/05/11 03:54:23;;;;;;;7.23;6.60;;;12.20;99.90;;;;;;5203319;28;20436;-49
2023/05/11 03:56:54;;;;;;;8.77;7.90;;;12.20;99.90;;;;;;5217785;28;20442;-49
2023/05/11 03:59:25;;;;;;;7.70;6.90;;;12.30;99.90;;;;;;5204274;28;20474;-49
2023/05/11 04:01:57;;;;;;;7.73;6.90;;;12.30;99.90;;;;;;5202555;28;20200;-49
2023/05/11 04:04:29;;;;;;;8.30;7.03;;;12.30;99.90;;;;;;5202600;28;20483;-48
2023/05/11 04:07:01;;;;;;;7.40;6.70;;;12.30;99.90;;;;;;5215945;28;20449;-48
2023/05/11 04:09:32;;;;;;;9.40;7.10;;;12.40;99.90;;;;;;5205335;28;20453;-50
2023/05/11 04:12:05;;;;;;;8.10;6.90;;;12.40;99.90;;;;;;5204941;28;20462;-47
2023/05/11 04:14:36;;;;;;;7.93;7.03;;;12.50;99.90;;;;;;5212299;28;20261;-51
2023/05/11 04:17:07;;;;;;;7.53;6.83;;;12.50;99.90;;;;;;5204412;28;20529;-49
2023/05/11 04:19:38;;;;;;;11.90;5.80;;;12.60;99.90;;;;;;5202876;28;20657;-50
2023/05/11 04:22:11;;;;;;;6.80;6.03;;;12.60;99.90;;;;;;5203410;28;20259;-48
2023/05/11 04:24:41;;;;;;;7.30;6.33;;;12.60;99.90;;;;;;5204587;28;20501;-49
2023/05/11 04:27:15;;;;;;;11.37;7.20;;;12.70;99.90;;;;;;5203374;28;20838;-49
2023/05/11 04:29:47;;;;;;;5.87;5.37;;;12.70;99.90;;;;;;5204846;28;20242;-47
2023/05/11 04:32:21;;;;;;;9.73;6.23;;;12.80;99.90;;;;;;5201245;28;20450;-49
2023/05/11 04:34:55;;;;;;;14.83;6.20;;;12.80;99.90;;;;;;5202566;28;20496;-49
2023/05/11 04:37:25;;;;;;;6.63;6.00;;;13.10;99.90;;;;;;5209975;28;20832;-49
2023/05/11 04:39:57;;;;;;;8.67;5.57;;;13.20;99.90;;;;;;5210868;28;20446;-48
2023/05/11 04:42:30;;;;;;;6.63;5.50;;;13.30;99.90;;;;;;5215714;28;20199;-49
2023/05/11 04:45:00;;;;;;;6.50;6.00;;;13.50;99.90;;;;;;5219853;28;20789;-48
2023/05/11 04:47:33;;;;;;;7.20;5.80;;;13.60;99.90;;;;;;5208905;28;20454;-50
2023/05/11 04:50:04;;;;;;;10.63;5.50;;;14.30;99.90;;;;;;5203279;28;20553;-49
2023/05/11 04:52:35;;;;;;;6.50;5.17;;;15.40;99.90;;;;;;5202521;28;20485;-48
2023/05/11 04:55:06;;;;;;;5.07;4.50;;;16.80;99.90;;;;;;5202504;28;20430;-49
2023/05/11 04:57:37;;;;;;;6.60;4.70;;;17.80;99.90;;;;;;5200136;28;20474;-48
2023/05/11 05:00:09;;;;;;;5.43;5.03;;;18.30;96.90;;;;;;5188244;28;20837;-48
2023/05/11 05:02:43;;;;;;;5.20;4.70;;;18.90;90.20;;;;;;5199196;28;20203;-49
2023/05/11 05:05:13;;;;;;;7.00;4.67;;;19.40;83.30;;;;;;5218458;28;20492;-49
2023/05/11 05:07:44;;;;;;;6.07;5.57;;;20.20;74.20;;;;;;5201909;28;20791;-49
2023/05/11 05:10:15;;;;;;;5.30;4.80;;;20.00;70.20;;;;;;5203345;28;20341;-50
2023/05/11 05:12:46;;;;;;;5.00;4.50;;;19.50;71.80;;;;;;5200859;28;20520;-48
2023/05/11 05:15:17;;;;;;;8.03;5.00;;;19.70;70.40;;;;;;5206478;28;20494;-51
2023/05/11 05:17:48;;;;;;;5.13;4.40;;;19.90;70.50;;;;;;5200565;28;20894;-49
2023/05/11 05:20:19;;;;;;;11.07;4.90;;;20.70;66.20;;;;;;5201089;28;20217;-50
2023/05/11 05:22:50;;;;;;;4.57;4.27;;;21.20;62.20;;;;;;5201510;28;20458;-50
2023/05/11 05:25:22;;;;;;;6.47;4.87;;;21.90;59.40;;;;;;5203180;28;20365;-50
2023/05/11 05:27:53;;;;;;;6.50;4.30;;;22.50;56.80;;;;;;5206937;28;20437;-50
2023/05/11 05:30:23;;;;;;;7.13;3.97;;;23.40;54.70;;;;;;5205222;28;20486;-48
2023/05/11 05:32:55;;;;;;;4.53;4.20;;;24.20;50.90;;;;;;5201871;28;20314;-48
2023/05/11 05:35:26;;;;;;;7.30;4.83;;;24.90;48.10;;;;;;5204292;28;20442;-49
2023/05/11 05:37:56;;;;;;;4.93;3.90;;;24.90;47.80;;;;;;5206236;28;20930;-50
2023/05/11 05:40:28;;;;;;;6.80;5.17;;;25.20;46.10;;;;;;5200555;28;20286;-51
2023/05/11 05:42:59;;;;;;;4.90;4.00;;;26.00;44.90;;;;;;5202781;28;20203;-49
2023/05/11 05:45:29;;;;;;;7.20;4.17;;;26.70;43.30;;;;;;5204640;28;20916;-51
2023/05/11 05:48:04;;;;;;;5.13;4.73;;;26.40;42.60;;;;;;5198450;28;20192;-49
2023/05/11 05:50:36;;;;;;;4.90;4.50;;;26.20;42.40;;;;;;5201436;28;20188;-49
2023/05/11 05:53:07;;;;;;;5.67;4.20;;;26.00;41.90;;;;;;5202754;28;20501;-50
2023/05/11 05:55:40;;;;;;;4.57;4.20;;;25.70;43.10;;;;;;5201788;28;20450;-48
2023/05/11 05:58:11;;;;;;;4.67;4.23;;;26.10;42.30;;;;;;5200079;28;20466;-49
2023/05/11 06:00:42;;;;;;;4.67;4.17;;;26.20;41.70;;;;;;5199703;28;20468;-48
2023/05/11 06:03:13;;;;;;;7.60;4.37;;;26.70;41.10;;;;;;5202924;28;20211;-51
2023/05/11 06:05:44;;;;;;;4.40;3.80;;;26.90;40.90;;;;;;5202832;28;20757;-51
2023/05/11 06:08:15;;;;;;;4.87;4.57;;;27.80;39.70;;;;;;5202704;28;20188;-52
2023/05/11 06:10:46;;;;;;;4.73;3.90;;;28.00;38.20;;;;;;5201672;28;20211;-50
2023/05/11 06:13:17;;;;;;;4.00;3.70;;;27.60;38.20;;;;;;5226759;22;20490;-50
2023/05/11 06:15:47;;;;;;;4.70;4.00;;;27.30;38.30;;;;;;5222838;28;20410;-52
2023/05/11 06:18:21;;;;;;;4.23;3.77;;;27.20;39.10;;;;;;5222695;28;20352;-52
2023/05/11 06:20:58;;;;;;;6.67;3.80;;;27.40;38.70;;;;;;5201212;28;20188;-52
2023/05/11 06:23:29;;;;;;;3.20;3.00;;;27.70;38.00;;;;;;5223437;28;20461;-51
2023/05/11 06:26:03;;;;;;;11.07;4.43;;;27.50;37.60;;;;;;5219491;28;20495;-53
2023/05/11 06:28:34;;;;;;;4.20;3.90;;;27.00;39.00;;;;;;5220684;28;20818;-52
2023/05/11 06:31:05;;;;;;;3.90;3.70;;;27.90;37.60;;;;;;5218044;28;20433;-50
2023/05/11 06:33:36;;;;;;;8.20;3.70;;;28.40;36.50;;;;;;5215859;28;20701;-53
2023/05/11 06:36:07;;;;;;;8.57;3.93;;;28.70;35.70;;;;;;5217256;28;20607;-52
2023/05/11 06:38:37;;;;;;;3.50;3.23;;;28.50;35.70;;;;;;5220973;28;20211;-51
2023/05/11 06:41:10;;;;;;;3.90;3.60;;;28.10;35.50;;;;;;5224515;28;20711;-50
2023/05/11 06:43:41;;;;;;;4.97;3.50;;;28.80;35.20;;;;;;5220583;28;20213;-49
2023/05/11 06:46:15;;;;;;;3.67;3.37;;;28.90;34.60;;;;;;5223471;28;20426;-50
2023/05/11 06:48:45;;;;;;;16.10;3.77;;;29.20;34.70;;;;;;5224773;28;20179;-50
2023/05/11 06:51:16;;;;;;;2.90;2.80;;;29.20;34.10;;;;;;5224688;28;20429;-50
2023/05/11 06:53:47;;;;;;;3.67;3.47;;;29.40;34.50;;;;;;5221683;28;20273;-50
2023/05/11 06:56:18;;;;;;;4.00;3.03;;;30.10;33.50;;;;;;5223411;28;20291;-52
2023/05/11 06:58:48;;;;;;;3.90;3.40;;;30.70;32.60;;;;;;5223261;28;20560;-51
2023/05/11 07:01:19;;;;;;;3.73;3.47;;;31.60;31.00;;;;;;5223254;28;20192;-49
2023/05/11 07:03:53;;;;;;;6.23;3.03;;;31.70;30.50;;;;;;5224920;28;20544;-50
2023/05/11 07:06:24;;;;;;;4.23;3.80;;;32.00;30.30;;;;;;5223554;28;20187;-53
2023/05/11 07:08:55;;;;;;;3.57;3.27;;;31.00;30.80;;;;;;5223296;28;20510;-50
2023/05/11 07:11:26;;;;;;;3.07;2.77;;;30.90;31.80;;;;;;5221466;28;20726;-50
2023/05/11 07:13:57;;;;;;;3.97;3.17;;;31.00;30.90;;;;;;5222997;28;20457;-51
2023/05/11 07:16:28;;;;;;;3.03;2.83;;;31.20;31.40;;;;;;5221633;28;20442;-51
2023/05/11 07:18:58;;;;;;;4.80;2.90;;;32.40;30.60;;;;;;5222277;28;20203;-51
2023/05/11 07:21:31;;;;;;;3.80;2.97;;;33.10;29.70;;;;;;5239618;28;20182;-52
2023/05/11 07:24:02;;;;;;;2.33;2.23;;;34.10;28.70;;;;;;5224503;28;20644;-51
2023/05/11 07:26:33;;;;;;;2.00;1.83;;;34.00;28.10;;;;;;5225140;28;20436;-50
2023/05/11 07:29:04;;;;;;;3.00;2.73;;;34.80;27.80;;;;;;5221641;28;20451;-52
2023/05/11 07:31:35;;;;;;;2.27;2.20;;;35.10;27.00;;;;;;5222372;28;20198;-51
2023/05/11 07:34:05;;;;;;;4.70;2.53;;;33.20;27.60;;;;;;5206647;28;20190;-49
2023/05/11 07:36:36;;;;;;;2.80;2.53;;;32.60;28.20;;;;;;5222106;28;20794;-50
2023/05/11 07:39:07;;;;;;;4.20;1.83;;;32.00;29.00;;;;;;5222454;28;20213;-50
2023/05/11 07:41:38;;;;;;;2.73;2.63;;;32.80;28.80;;;;;;5223025;28;20457;-50
2023/05/11 07:44:09;;;;;;;2.30;2.10;;;34.20;27.30;;;;;;5222452;28;20186;-50
2023/05/11 07:46:39;;;;;;;3.40;3.20;;;34.60;26.50;;;;;;5220437;28;20187;-50
2023/05/11 07:49:10;;;;;;;2.43;2.33;;;35.10;27.10;;;;;;5221577;28;20191;-50
2023/05/11 07:51:40;;;;;;;2.57;2.37;;;34.40;27.10;;;;;;5224375;28;20232;-51
2023/05/11 07:54:11;;;;;;;7.80;3.30;;;33.20;27.20;;;;;;5224758;28;20545;-50
2023/05/11 07:56:42;;;;;;;8.73;3.30;;;31.70;29.10;;;;;;5209076;28;20183;-51
2023/05/11 07:59:12;;;;;;;2.67;2.53;;;31.10;29.70;;;;;;5221293;28;20240;-49
2023/05/11 08:01:43;;;;;;;4.20;2.60;;;30.40;30.20;;;;;;5224367;28;20199;-50
2023/05/11 08:04:14;;;;;;;2.53;2.33;;;29.80;30.60;;;;;;5220322;28;20230;-51
2023/05/11 08:06:44;;;;;;;3.00;2.80;;;29.40;30.80;;;;;;5224837;28;20190;-49
2023/05/11 08:09:15;;;;;;;4.60;2.20;;;28.70;31.70;;;;;;5221920;28;20655;-50
2023/05/11 08:11:46;;;;;;;2.00;1.90;;;28.70;32.10;;;;;;5220416;28;20257;-50
2023/05/11 08:14:16;;;;;;;8.70;2.67;;;28.70;31.40;;;;;;5219795;28;20217;-50
2023/05/11 08:16:48;;;;;;;2.90;2.40;;;28.70;31.80;;;;;;5221673;28;20206;-50
2023/05/11 08:19:19;;;;;;;2.47;2.37;;;28.50;32.00;;;;;;5221896;28;20208;-50
2023/05/11 08:21:49;;;;;;;5.77;2.80;;;28.40;32.20;;;;;;5228595;28;20528;-50
2023/05/11 08:24:20;;;;;;;2.30;2.20;;;27.90;33.00;;;;;;5225805;28;20254;-49
2023/05/11 08:26:51;;;;;;;2.07;2.07;;;27.60;34.10;;;;;;5222703;28;20685;-49
2023/05/11 08:29:21;;;;;;;4.13;2.57;;;27.40;34.30;;;;;;5220786;28;20201;-49
2023/05/11 08:31:52;;;;;;;2.57;2.10;;;27.20;34.60;;;;;;5218757;28;20737;-48
2023/05/11 08:34:23;;;;;;;2.13;2.07;;;27.70;34.50;;;;;;5221987;28;20183;-50
2023/05/11 08:36:55;;;;;;;3.93;2.57;;;27.80;34.20;;;;;;5226006;28;20532;-51
2023/05/11 08:39:27;;;;;;;2.47;2.27;;;26.70;35.10;;;;;;5223911;28;20576;-49
2023/05/11 08:41:58;;;;;;;2.60;2.50;;;25.80;37.30;;;;;;5218749;28;20458;-50
2023/05/11 08:44:31;;;;;;;3.33;2.20;;;25.10;37.90;;;;;;5221181;28;20766;-51
2023/05/11 08:47:04;;;;;;;3.03;2.30;;;24.50;39.00;;;;;;5219617;28;20536;-49
2023/05/11 08:49:36;;;;;;;5.10;2.47;;;24.20;39.60;;;;;;5220872;28;21128;-49
2023/05/11 08:52:07;;;;;;;5.30;2.40;;;23.70;39.90;;;;;;5219710;28;20454;-49
2023/05/11 08:54:38;;;;;;;2.40;2.30;;;23.80;40.90;;;;;;5219568;28;20496;-49
2023/05/11 08:57:10;;;;;;;2.53;2.43;;;23.70;40.50;;;;;;5219790;28;21677;-50
2023/05/11 08:59:43;;;;;;;2.50;2.40;;;23.30;40.10;;;;;;5203577;28;20589;-52
2023/05/11 09:02:17;;;;;;;8.23;2.30;;;22.70;41.00;;;;;;5224201;28;20454;-51
2023/05/11 09:04:49;;;;;;;2.20;2.10;;;22.10;42.10;;;;;;5223501;28;20440;-51
2023/05/11 09:07:23;;;;;;;2.60;2.40;;;21.80;42.80;;;;;;5219224;28;20484;-49
2023/05/11 09:09:53;;;;;;;3.27;2.40;;;21.80;43.30;;;;;;5221495;28;20925;-51
2023/05/11 09:12:27;;;;;;;13.33;2.90;;;21.80;43.20;;;;;;5221755;28;20510;-51
2023/05/11 09:14:57;;;;;;;2.30;2.20;;;22.00;43.10;;;;;;5223628;28;20211;-52
2023/05/11 09:17:28;;;;;;;6.03;2.30;;;21.90;42.50;;;;;;5218245;28;20843;-50
2023/05/11 09:20:01;;;;;;;2.33;2.20;;;21.90;41.90;;;;;;5221473;28;20180;-51
2023/05/11 09:22:33;;;;;;;5.60;2.10;;;21.90;41.80;;;;;;5224409;28;20654;-50
2023/05/11 09:25:04;;;;;;;3.47;1.87;;;21.90;41.30;;;;;;5220346;28;20986;-48
2023/05/11 09:27:40;;;;;;;2.03;2.03;;;21.90;40.50;;;;;;5221213;28;20790;-50
2023/05/11 09:30:12;;;;;;;1.83;1.83;;;21.90;41.00;;;;;;5219284;28;20498;-49
2023/05/11 09:32:50;;;;;;;8.40;2.07;;;22.00;41.00;;;;;;5216375;28;20457;-51
2023/05/11 09:35:34;;;;;;;1.70;1.60;;;21.90;41.20;;;;;;5223699;28;20532;-50
2023/05/11 09:38:11;;;;;;;4.87;1.90;;;22.10;41.70;;;;;;5222797;28;20538;-50
2023/05/11 09:40:54;;;;;;;2.20;2.10;;;22.00;39.70;;;;;;5221151;28;20853;-50
2023/05/11 09:43:26;;;;;;;5.30;1.90;;;21.90;39.80;;;;;;5223620;28;21010;-52
2023/05/11 09:46:05;;;;;;;3.30;2.47;;;21.90;40.30;;;;;;5221149;28;20428;-50
2023/05/11 09:48:36;;;;;;;5.63;1.60;;;21.70;40.10;;;;;;5222006;28;20460;-49
2023/05/11 09:51:07;;;;;;;3.90;2.23;;;21.60;41.20;;;;;;5219035;28;20437;-50
2023/05/11 09:53:42;;;;;;;3.23;2.20;;;21.30;41.40;;;;;;5219043;28;20298;-49
2023/05/11 09:56:14;;;;;;;2.60;2.40;;;21.60;41.90;;;;;;5222648;28;20178;-50
2023/05/11 09:58:50;;;;;;;2.00;1.87;;;21.50;41.50;;;;;;5217195;28;20976;-50
2023/05/11 10:01:29;;;;;;;2.37;2.17;;;21.60;41.40;;;;;;5217780;28;20430;-49
2023/05/11 10:04:02;;;;;;;6.30;1.97;;;21.80;41.00;;;;;;5222951;28;20444;-50
2023/05/11 10:06:44;;;;;;;1.80;1.70;;;21.90;40.10;;;;;;5203162;28;20456;-50
2023/05/11 10:09:17;;;;;;;8.83;2.20;;;21.90;38.90;;;;;;5220846;28;20473;-50
2023/05/11 10:11:49;;;;;;;2.23;2.03;;;22.00;39.20;;;;;;5218931;28;20471;-49
2023/05/11 10:14:21;;;;;;;2.23;2.07;;;22.00;39.60;;;;;;5225617;28;20865;-49
2023/05/11 10:16:54;;;;;;;1.70;1.60;;;22.00;39.30;;;;;;5223568;28;20446;-51
2023/05/11 10:19:25;;;;;;;2.53;2.03;;;22.00;39.00;;;;;;5224211;28;20972;-48
2023/05/11 10:21:58;;;;;;;5.13;2.43;;;22.00;39.50;;;;;;5220284;28;20453;-51
2023/05/11 10:24:30;;;;;;;6.60;2.23;;;22.10;39.80;;;;;;5222608;28;20520;-49
2023/05/11 10:27:01;;;;;;;2.20;1.60;;;22.00;39.50;;;;;;5222158;28;20468;-50
2023/05/11 10:29:33;;;;;;;2.77;2.37;;;22.40;39.80;;;;;;5223026;28;20449;-50
2023/05/11 10:32:06;;;;;;;1.93;1.83;;;22.70;38.70;;;;;;5219305;28;20461;-49
2023/05/11 10:34:40;;;;;;;1.97;1.87;;;22.80;38.60;;;;;;5224168;28;20441;-51
2023/05/11 10:37:11;;;;;;;1.50;1.40;;;22.60;38.80;;;;;;5221630;28;20536;-50
2023/05/11 10:39:44;;;;;;;3.60;1.87;;;22.20;39.60;;;;;;5222618;28;20551;-49
2023/05/11 10:42:23;;;;;;;2.33;2.10;;;22.20;39.80;;;;;;5224043;28;20463;-50
2023/05/11 10:45:03;;;;;;;1.77;1.67;;;22.50;39.60;;;;;;5224295;28;20429;-49
2023/05/11 10:47:55;;;;;;;2.03;1.93;;;22.50;39.40;;;;;;5217432;28;20454;-51
2023/05/11 10:50:31;;;;;;;2.17;1.97;;;22.30;40.00;;;;;;5219084;28;20434;-51
2023/05/11 10:53:17;;;;;;;4.00;2.30;;;22.30;39.80;;;;;;5223780;28;20544;-49
2023/05/11 10:56:34;;;;;;;2.30;2.10;;;22.20;39.80;;;;;;5226889;28;20494;-50
2023/05/11 10:59:24;;;;;;;3.77;2.47;;;22.20;39.30;;;;;;5219980;28;20485;-48
2023/05/11 11:01:57;;;;;;;8.23;2.13;;;22.30;39.60;;;;;;5224244;28;20453;-50
2023/05/11 11:04:43;;;;;;;1.80;1.77;;;22.60;39.90;;;;;;5222196;28;20433;-50
2023/05/11 11:07:17;;;;;;;2.10;1.60;;;23.00;38.60;;;;;;5222477;28;20417;-49
2023/05/11 11:09:58;;;;;;;1.93;1.83;;;23.30;38.00;;;;;;5224280;28;20429;-50
2023/05/11 11:12:29;;;;;;;1.67;1.57;;;23.20;38.00;;;;;;5219858;28;20815;-50
2023/05/11 11:15:05;;;;;;;6.20;2.40;;;23.30;37.40;;;;;;5221698;28;20440;-50
2023/05/11 11:17:35;;;;;;;2.00;1.83;;;23.00;37.80;;;;;;5223715;28;20487;-50
2023/05/11 11:20:07;;;;;;;1.80;1.80;;;22.90;38.20;;;;;;5221644;28;20529;-51
2023/05/11 11:22:39;;;;;;;2.60;2.40;;;22.70;38.40;;;;;;5225274;28;20562;-49
2023/05/11 11:25:11;;;;;;;2.37;2.27;;;22.60;38.90;;;;;;5223217;28;20493;-50
2023/05/11 11:27:48;;;;;;;1.80;1.70;;;22.40;38.60;;;;;;5238561;28;20976;-50
2023/05/11 11:30:22;;;;;;;2.50;2.30;;;22.20;38.70;;;;;;5221776;28;20444;-51
2023/05/11 11:33:14;;;;;;;4.53;1.93;;;22.10;39.30;;;;;;5221251;28;20475;-51
2023/05/11 11:35:45;;;;;;;1.80;1.70;;;22.10;39.30;;;;;;5221322;28;20513;-51
2023/05/11 11:38:18;;;;;;;3.57;2.30;;;22.30;38.50;;;;;;5221161;28;20947;-51
2023/05/11 11:40:53;;;;;;;2.90;1.90;;;22.40;39.20;;;;;;5222202;28;20445;-50
2023/05/11 11:43:25;;;;;;;9.57;2.00;;;22.50;39.10;;;;;;5219907;28;20506;-51
2023/05/11 11:45:59;;;;;;;1.87;1.87;;;22.50;39.00;;;;;;5222854;28;20445;-50
2023/05/11 11:48:37;;;;;;;3.40;1.90;;;22.10;40.10;;;;;;5218968;28;20764;-50
2023/05/11 11:51:10;;;;;;;2.40;2.20;;;21.70;40.90;;;;;;5221047;28;20441;-53
2023/05/11 11:54:03;;;;;;;4.47;2.50;;;21.50;41.60;;;;;;5224060;28;20465;-49
2023/05/11 11:56:39;;;;;;;1.90;1.80;;;21.40;42.00;;;;;;5220182;28;20453;-49
2023/05/11 11:59:12;;;;;;;2.53;2.43;;;21.40;42.00;;;;;;5219858;28;20522;-50
2023/05/11 12:01:44;;;;;;;4.17;2.47;;;21.40;42.10;;;;;;5222932;28;20446;-51
2023/05/11 12:04:23;;;;;;;1.80;1.60;;;21.40;42.00;;;;;;5221874;28;21028;-52
2023/05/11 12:06:56;;;;;;;1.80;1.70;;;21.40;40.90;;;;;;5217599;28;20429;-50
2023/05/11 12:09:27;;;;;;;7.97;1.87;;;21.50;40.60;;;;;;5221194;28;20445;-51
2023/05/11 12:12:01;;;;;;;2.30;1.87;;;21.80;39.90;;;;;;5223333;28;20523;-48
2023/05/11 12:14:32;;;;;;;8.43;1.67;;;22.00;39.70;;;;;;5219614;28;20289;-49
2023/05/11 12:17:07;;;;;;;2.20;2.10;;;22.10;38.50;;;;;;5223338;28;20458;-48
2023/05/11 12:19:38;;;;;;;7.13;1.73;;;22.10;38.10;;;;;;5221240;28;20522;-48
2023/05/11 12:22:09;;;;;;;1.93;1.83;;;22.00;37.70;;;;;;5219051;28;20812;-49
2023/05/11 12:24:41;;;;;;;2.23;2.07;;;22.10;37.80;;;;;;5218148;28;20708;-49
2023/05/11 12:27:12;;;;;;;1.47;1.47;;;22.00;37.20;;;;;;5221949;28;20934;-49
2023/05/11 12:29:50;;;;;;;3.50;1.53;;;22.20;36.50;;;;;;5217914;28;20495;-49
2023/05/11 12:32:26;;;;;;;3.53;1.83;;;22.30;36.60;;;;;;5217264;28;20705;-50
2023/05/11 12:35:03;;;;;;;1.93;1.50;;;22.30;36.70;;;;;;5220556;28;20427;-49
2023/05/11 12:37:35;;;;;;;3.47;1.63;;;22.40;36.30;;;;;;5220907;28;20555;-49
2023/05/11 12:40:09;;;;;;;2.00;1.33;;;22.40;36.40;;;;;;5219323;28;20470;-49
2023/05/11 12:42:51;;;;;;;7.63;1.73;;;22.40;36.50;;;;;;5221940;28;20465;-48
2023/05/11 12:45:23;;;;;;;1.23;1.23;;;22.40;36.90;;;;;;5218804;28;20537;-50
2023/05/11 12:47:55;;;;;;;1.80;1.40;;;22.40;37.20;;;;;;5221808;28;20437;-49
2023/05/11 12:50:26;;;;;;;8.83;2.20;;;22.50;38.10;;;;;;5221073;28;20501;-49
2023/05/11 12:53:15;;;;;;;12.60;2.20;;;22.30;37.20;;;;;;5221347;28;20536;-50
2023/05/11 12:55:57;;;;;;;5.33;1.50;;;22.00;38.00;;;;;;5224057;28;20183;-49
2023/05/11 12:58:39;;;;;;;1.23;1.23;;;21.80;38.20;;;;;;5224423;28;20463;-50
2023/05/11 13:01:09;;;;;;;1.33;1.33;;;21.70;38.00;;;;;;5221766;28;20449;-52
2023/05/11 13:03:46;;;;;;;8.33;1.90;;;21.70;38.30;;;;;;5221418;28;21023;-48
2023/05/11 13:06:19;;;;;;;1.40;1.40;;;21.70;38.40;;;;;;5221572;28;20694;-49
2023/05/11 13:08:50;;;;;;;1.40;1.30;;;21.60;38.30;;;;;;5221702;28;20457;-50
2023/05/11 13:11:24;;;;;;;4.40;1.70;;;21.60;37.40;;;;;;5220642;28;20496;-50
2023/05/11 13:13:55;;;;;;;3.90;1.23;;;21.60;36.60;;;;;;5223905;28;20433;-48